• Join FlightAware (Why Join?)
  • Login
  • US Flag 
10:20PM EDT


 

Airport Tracker/Info


-or-


 

Live Flight TrackerFlight Track Log ✈ UAE777 ✈ 17-May-2013 ✈ KPAE - OMDB / DXB

Flight Track Log - Related Links

Times and Time Zones

All times are in EDT time to prevent confusion due to time zone crossing. See the UAE777 flight status page for this flight to view local times or setup timezone preferences in your user account.

Time Position Orientation Groundspeed Altitude Reporting Facility
EDT Latitude Longitude Course Direction KTS MPH feet Rate Location/Type
03:25PM 47.8620 -122.4410 316° Northwest 269 310 6,300  Level FlightAware
03:25PM 47.8820 -122.4560 333° Northwest 274 315 7,200 3,180 Climbing FlightAware
03:26PM 47.9190 -122.4690 347° North 285 328 8,700 2,820 Climbing FlightAware
03:26PM 47.9770 -122.4860 349° North 311 358 10,500 1,500 Climbing FlightAware
03:27PM 48.0520 -122.5070 349° North 380 437 10,900 360 Climbing FlightAware
03:28PM 48.1020 -122.5210 349° North 396 456 11,000 2,100 Climbing FlightAware
03:28PM 48.1970 -122.5480 349° North 397 457 13,700 2,940 Climbing FlightAware
03:29PM 48.2760 -122.5650 352° North 407 468 15,700 2,640 Climbing FlightAware
03:30PM 48.3530 -122.5670 359° North 420 483 17,500 2,700 Climbing FlightAware
03:31PM 48.4500 -122.5690 359° North 432 497 19,600 2,520 Climbing FlightAware
03:31PM 48.5240 -122.5700 359° North 438 504 21,100 2,460 Climbing FlightAware
03:32PM 48.6150 -122.5720 359° North 447 514 22,900 2,280 Climbing FlightAware
03:33PM 48.6990 -122.5740 359° North 464 534 24,200 1,920 Climbing FlightAware
03:33PM 48.7920 -122.5760 359° North 465 535 25,700 1,800 Climbing FlightAware
03:34PM 48.8840 -122.5780 359° North 485 558 26,800 1,740 Climbing FlightAware
03:35PM 48.9930 -122.5730 North 494 568 28,200 1,740 Climbing FlightAware
03:35PM 49.0810 -122.5660 North 500 575 29,300 1,440 Climbing FlightAware
03:36PM 49.1860 -122.5570 North 511 588 30,300 1,260 Climbing FlightAware
03:37PM 49.2790 -122.5490 North 518 596 31,100 1,260 Climbing FlightAware
03:37PM 49.3790 -122.5380 North 517 595 32,000 600 Climbing FlightAware
03:38PM 49.4860 -122.5240 North 514 592 32,000  Level FlightAware
03:39PM 49.5800 -122.5120 North 512 589 32,000  Level FlightAware
03:40PM 49.6850 -122.4980 North 510 587 32,000  Level FlightAware
03:40PM 49.7790 -122.4860 North 509 586 32,000  Level FlightAware
03:41PM 49.8740 -122.4740 North 509 586 32,000  Level FlightAware
03:42PM 49.9810 -122.4610 North 507 583 32,000  Level FlightAware
03:42PM 50.0690 -122.4500 North 505 581 32,000  Level FlightAware
03:43PM 50.1760 -122.4360 North 503 579 32,000  Level FlightAware
03:44PM 50.2680 -122.4240 North 503 579 32,000  Level FlightAware
03:44PM 50.3470 -122.4140 North 503 579 32,000  Level FlightAware
03:45PM 50.4670 -122.3980 North 502 578 32,000  Level FlightAware
03:46PM 50.5630 -122.3860 North 502 578 32,000  Level FlightAware
03:47PM 50.6620 -122.3730 North 501 577 32,000  Level FlightAware
03:48PM 50.7880 -122.3570 North 500 575 32,000  Level FlightAware
03:48PM 50.8650 -122.3470 North 500 575 32,000  Level FlightAware
03:49PM 50.9790 -122.3330 North 498 573 32,000  Level FlightAware
03:50PM 51.0900 -122.3190 North 498 573 32,000  Level FlightAware
03:50PM 51.1730 -122.3080 North 497 572 32,000  Level FlightAware
03:51PM 51.2730 -122.2950 North 497 572 32,000  Level FlightAware
03:52PM 51.3530 -122.2850 North 498 573 32,000  Level FlightAware
03:52PM 51.4540 -122.2720 North 496 571 32,000  Level FlightAware
03:53PM 51.5480 -122.2600 North 495 570 32,000  Level FlightAware
03:54PM 51.6500 -122.2470 North 494 568 32,000  Level FlightAware
03:54PM 51.7430 -122.2340 North 494 568 32,000  Level FlightAware
03:55PM 51.8340 -122.2220 North 495 570 32,000  Level FlightAware
03:56PM 51.9330 -122.2090 North 500 575 32,000  Level FlightAware
03:57PM 52.0260 -122.1970 North 501 577 32,000  Level FlightAware
03:57PM 52.1170 -122.1850 North 501 577 32,000  Level FlightAware
03:58PM 52.2240 -122.1690 North 501 577 32,000  Level FlightAware
03:59PM 52.3160 -122.1460 North 504 580 32,000  Level FlightAware
03:59PM 52.4140 -122.1200 North 505 581 32,000  Level FlightAware
04:00PM 52.4930 -122.0990 North 505 581 32,000  Level FlightAware
04:01PM 52.5710 -122.0790 North 505 581 32,000  Level FlightAware
04:01PM 52.6500 -122.0580 North 505 581 32,000  Level FlightAware
04:02PM 52.7280 -122.0380 North 505 581 32,000  Level FlightAware
04:03PM 52.8260 -122.0120 North 505 581 32,000  Level FlightAware
04:04PM 52.9050 -121.9920 North 505 581 32,000  Level FlightAware
04:04PM 52.9830 -121.9710 North 505 581 32,000  Level FlightAware
04:05PM 53.0620 -121.9500 North 505 581 32,000  Level FlightAware
04:06PM 53.1400 -121.9300 North 505 581 32,000  Level FlightAware
04:06PM 53.2380 -121.9040 North 505 581 32,000  Level FlightAware
04:07PM 53.3170 -121.8830 North 505 581 32,000  Level FlightAware
04:08PM 53.3950 -121.8620 North 505 581 32,000 1,380 Level FlightAware
04:08PM 53.6560 -121.7510 14° North 499 574 34,000 1,380 Climbing FlightAware
04:09PM 53.7460 -121.7240 10° North 499 574 34,000  Level FlightAware
04:10PM 53.8510 -121.6920 10° North 500 575 34,000  Level FlightAware
04:11PM 53.9420 -121.6640 10° North 502 578 34,000  Level FlightAware
04:11PM 54.0340 -121.6350 10° North 503 579 34,000  Level FlightAware
04:12PM 54.1340 -121.6040 10° North 504 580 34,000  Level FlightAware
04:13PM 54.2250 -121.5750 11° North 505 581 34,000  Level FlightAware
04:13PM 54.3310 -121.5420 10° North 505 581 34,000  Level FlightAware
04:14PM 54.4240 -121.5130 10° North 504 580 34,000  Level FlightAware
04:15PM 54.5130 -121.4850 10° North 504 580 34,000  Level FlightAware
04:15PM 54.6150 -121.4520 11° North 503 579 34,000  Level FlightAware
04:16PM 54.7050 -121.4240 10° North 502 578 34,000  Level FlightAware
04:17PM 54.8100 -121.3900 11° North 501 577 34,000  Level FlightAware
04:18PM 54.9010 -121.3600 11° North 496 571 34,000  Level FlightAware
04:18PM 54.9780 -121.3370 10° North 496 571 34,000  Level FlightAware
04:19PM 55.0550 -121.3130 10° North 496 571 34,000  Level FlightAware
04:20PM 55.1320 -121.2890 10° North 496 571 34,000  Level FlightAware
04:20PM 55.2280 -121.2600 10° North 496 571 34,000  Level FlightAware
04:21PM 55.3050 -121.2360 10° North 496 571 34,000  Level FlightAware
04:22PM 55.3820 -121.2120 10° North 496 571 34,000  Level FlightAware
04:22PM 55.4590 -121.1880 10° North 496 571 34,000  Level FlightAware
04:23PM 55.5350 -121.1640 10° North 496 571 34,000  Level FlightAware
04:24PM 55.6120 -121.1400 10° North 496 571 34,000  Level FlightAware
04:25PM 55.7080 -121.1100 10° North 496 571 34,000  Level FlightAware
04:25PM 55.7850 -121.0860 10° North 496 571 34,000  Level FlightAware
04:26PM 55.8620 -121.0620 10° North 496 571 34,000  Level FlightAware
04:27PM 55.9390 -121.0380 10° North 496 571 34,000  Level FlightAware
04:27PM 56.0350 -121.0070 10° North 496 571 34,000  Level FlightAware
04:28PM 56.2833 -120.8833 10° North 500 575 34,000  Level Vancouver Center
04:29PM 56.3500 -120.9000 352° North 490 564 34,000  Level Edmonton Center
04:30PM 56.4833 -120.8333 15° North 500 575 34,000  Level Edmonton Center
04:31PM 56.6167 -120.7667 15° North 490 564 34,000  Level Edmonton Center
04:32PM 56.7500 -120.6667 22° Northeast 490 564 34,000  Level Edmonton Center
04:33PM 56.8833 -120.6000 15° North 480 552 34,000  Level Edmonton Center
04:34PM 57.0167 -120.5167 19° North 480 552 34,000  Level Edmonton Center
04:35PM 57.1500 -120.4500 15° North 480 552 34,000  Level Edmonton Center
04:36PM 57.2667 -120.3833 17° North 480 552 34,000  Level Edmonton Center
04:37PM 57.4000 -120.3167 15° North 480 552 34,000  Level Edmonton Center
04:38PM 57.5333 -120.2333 19° North 480 552 34,000  Level Edmonton Center
04:39PM 57.6500 -120.1500 21° North 480 552 34,000  Level Edmonton Center
04:40PM 57.8000 -120.0833 13° North 480 552 34,000  Level Edmonton Center
04:41PM 57.9167 -120.0167 17° North 490 564 34,000  Level Edmonton Center
04:42PM 58.0333 -119.9333 21° North 480 552 34,000  Level Edmonton Center
04:43PM 58.1667 -119.8333 22° Northeast 480 552 34,000  Level Edmonton Center
04:44PM 58.3000 -119.7500 18° North 490 564 34,000  Level Edmonton Center
04:45PM 58.4333 -119.6833 15° North 490 564 34,000  Level Edmonton Center
04:46PM 58.5667 -119.6000 18° North 480 552 34,000  Level Edmonton Center
04:47PM 58.7000 -119.5167 18° North 480 552 34,000  Level Edmonton Center
04:48PM 58.8167 -119.4500 16° North 470 541 34,000  Level Edmonton Center
04:49PM 58.9333 -119.3500 24° Northeast 470 541 34,000  Level Edmonton Center
04:49PM 59.0167 -119.3167 12° North 470 541 34,000  Level Edmonton Center
04:50PM 59.1167 -119.2333 23° Northeast 470 541 34,000  Level Edmonton Center
04:51PM 59.2500 -119.1500 18° North 480 552 34,000  Level Edmonton Center
04:52PM 59.3833 -119.0833 14° North 470 541 34,000  Level Edmonton Center
04:53PM 59.5167 -119.0000 18° North 480 552 34,000  Level Edmonton Center
04:54PM 59.6500 -118.9167 18° North 470 541 34,000  Level Edmonton Center
04:55PM 59.7500 -118.8167 27° Northeast 470 541 34,000  Level Edmonton Center
04:56PM 59.8833 -118.7333 17° North 460 529 34,000  Level Edmonton Center
04:57PM 60.0167 -118.6500 17° North 460 529 34,000  Level Edmonton Center
04:59PM 60.2667 -118.4833 18° North 460 529 34,000  Level Edmonton Center
05:00PM 60.3667 -118.3833 26° Northeast 460 529 34,000  Level Edmonton Center
05:01PM 60.5000 -118.3000 17° North 460 529 34,000  Level Edmonton Center
05:02PM 60.6167 -118.2500 12° North 450 518 34,000  Level Edmonton Center
05:03PM 60.7333 -118.1500 23° Northeast 460 529 34,000  Level Edmonton Center
05:04PM 60.8667 -118.0667 17° North 460 529 34,000  Level Edmonton Center
05:05PM 60.9833 -117.9667 23° Northeast 460 529 34,000  Level Edmonton Center
05:06PM 61.1167 -117.8833 17° North 470 541 34,000  Level Edmonton Center
05:07PM 61.2500 -117.8000 17° North 480 552 34,000  Level Edmonton Center
05:08PM 61.3667 -117.7000 22° Northeast 480 552 34,000  Level Edmonton Center
05:09PM 61.4833 -117.6000 22° Northeast 470 541 34,000  Level Edmonton Center
05:10PM 61.6167 -117.5167 17° North 470 541 34,000  Level Edmonton Center
05:11PM 61.7500 -117.4167 20° North 470 541 34,000  Level Edmonton Center
05:12PM 61.8500 -117.3167 25° Northeast 470 541 34,000  Level Edmonton Center
05:13PM 61.9833 -117.2167 19° North 470 541 34,000  Level Edmonton Center
05:14PM 62.1167 -117.1333 16° North 470 541 34,000  Level Edmonton Center
05:15PM 62.2167 -117.0333 25° Northeast 470 541 34,000  Level Edmonton Center
05:16PM 62.3500 -116.9333 19° North 470 541 34,000  Level Edmonton Center
05:17PM 62.4833 -116.8000 25° Northeast 470 541 34,000  Level Edmonton Center
05:18PM 62.6167 -116.7000 19° North 470 541 34,000  Level Edmonton Center
05:19PM 62.7500 -116.6000 19° North 470 541 34,000  Level Edmonton Center
05:20PM 62.8500 -116.5333 17° North 470 541 34,000  Level Edmonton Center
05:21PM 62.9833 -116.4333 19° North 470 541 34,000  Level Edmonton Center
05:22PM 63.0833 -116.3167 28° Northeast 470 541 34,000  Level Edmonton Center
05:23PM 63.2167 -116.2167 19° North 470 541 34,000  Level Edmonton Center
05:24PM 63.3500 -116.1167 19° North 470 541 34,000  Level Edmonton Center
05:25PM 63.4833 -116.0167 19° North 470 541 34,000  Level Edmonton Center
05:26PM 63.5833 -115.8667 34° Northeast 470 541 34,000  Level Edmonton Center
05:27PM 63.7167 -115.7500 21° North 470 541 34,000  Level Edmonton Center
05:28PM 63.8500 -115.6500 18° North 470 541 34,000  Level Edmonton Center
05:29PM 63.9500 -115.5333 27° Northeast 470 541 34,000  Level Edmonton Center
05:30PM 64.0833 -115.4167 21° North 470 541 34,000  Level Edmonton Center
05:31PM 64.2167 -115.3167 18° North 480 552 34,000  Level Edmonton Center
05:32PM 64.3333 -115.2000 23° Northeast 470 541 34,000  Level Edmonton Center
05:33PM 64.4667 -115.1000 18° North 470 541 34,000  Level Edmonton Center
05:34PM 64.5833 -114.9333 31° Northeast 480 552 34,000  Level Edmonton Center
05:35PM 64.7167 -114.8167 20° North 480 552 34,000  Level Edmonton Center
05:36PM 64.8167 -114.6667 33° Northeast 480 552 34,000  Level Edmonton Center
05:37PM 64.9333 -114.5000 31° Northeast 480 552 34,000  Level Edmonton Center
05:38PM 65.0667 -114.3833 20° North 470 541 34,000  Level Edmonton Center
05:39PM 65.1667 -114.2167 35° Northeast 480 552 34,000  Level Edmonton Center
05:40PM 65.2833 -114.0500 31° Northeast 480 552 34,000  Level Edmonton Center
05:41PM 65.4167 -113.8833 27° Northeast 480 552 34,000  Level Edmonton Center
05:42PM 65.5333 -113.7667 22° Northeast 480 552 34,000  Level Edmonton Center
05:43PM 65.6500 -113.6000 30° Northeast 480 552 34,000  Level Edmonton Center
05:44PM 65.7667 -113.4333 30° Northeast 480 552 34,000  Level Edmonton Center
05:45PM 65.9000 -113.2667 27° Northeast 480 552 34,000  Level Edmonton Center
05:47PM 66.0879 -113.1011 20° North  Level FlightAware Approximate
05:54PM 66.9922 -112.2662 20° North  Level FlightAware Approximate
05:55PM 67.1210 -112.1418 21° North  Level FlightAware Approximate
05:56PM 67.2497 -112.0161 21° North  Level FlightAware Approximate
05:57PM 67.3783 -111.8891 21° North  Level FlightAware Approximate
05:58PM 67.5068 -111.7607 21° North  Level FlightAware Approximate
05:59PM 67.6352 -111.6308 21° North  Level FlightAware Approximate
06:00PM 67.7635 -111.4996 21° North  Level FlightAware Approximate
06:01PM 67.8917 -111.3669 21° North  Level FlightAware Approximate
06:02PM 68.0198 -111.2328 21° North  Level FlightAware Approximate
06:03PM 68.1466 -111.0909 23° Northeast  Level FlightAware Approximate
06:04PM 68.2729 -110.9434 23° Northeast  Level FlightAware Approximate
06:05PM 68.3990 -110.7942 24° Northeast  Level FlightAware Approximate
06:06PM 68.5250 -110.6434 24° Northeast  Level FlightAware Approximate
06:07PM 68.6492 -110.4813 26° Northeast  Level FlightAware Approximate
06:08PM 68.7732 -110.3167 26° Northeast  Level FlightAware Approximate
06:09PM 68.8971 -110.1503 26° Northeast  Level FlightAware Approximate
06:10PM 69.0207 -109.9820 26° Northeast  Level FlightAware Approximate
06:11PM 69.1442 -109.8119 26° Northeast  Level FlightAware Approximate
06:12PM 69.2676 -109.6397 26° Northeast  Level FlightAware Approximate
06:13PM 69.3907 -109.4657 26° Northeast  Level FlightAware Approximate
06:14PM 69.5137 -109.2896 27° Northeast  Level FlightAware Approximate
06:15PM 69.6365 -109.1114 27° Northeast  Level FlightAware Approximate
06:16PM 69.7591 -108.9313 27° Northeast  Level FlightAware Approximate
06:17PM 69.8815 -108.7490 27° Northeast  Level FlightAware Approximate
06:18PM 70.0038 -108.5645 27° Northeast  Level FlightAware Approximate
06:19PM 70.1258 -108.3779 27° Northeast  Level FlightAware Approximate
06:20PM 70.2477 -108.1891 28° Northeast  Level FlightAware Approximate
06:21PM 70.3695 -107.9995 28° Northeast  Level FlightAware Approximate
06:22PM 70.4913 -107.8082 28° Northeast  Level FlightAware Approximate
06:23PM 70.6130 -107.6146 28° Northeast  Level FlightAware Approximate
06:24PM 70.7344 -107.4186 28° Northeast  Level FlightAware Approximate
06:25PM 70.8555 -107.2203 28° Northeast  Level FlightAware Approximate
06:26PM 70.9765 -107.0195 28° Northeast  Level FlightAware Approximate
06:27PM 71.0973 -106.8163 29° Northeast  Level FlightAware Approximate
06:28PM 71.2178 -106.6105 29° Northeast  Level FlightAware Approximate
06:29PM 71.3381 -106.4022 29° Northeast  Level FlightAware Approximate
06:30PM 71.4582 -106.1912 29° Northeast  Level FlightAware Approximate
06:31PM 71.5780 -105.9777 29° Northeast  Level FlightAware Approximate
06:32PM 71.6976 -105.7614 30° Northeast  Level FlightAware Approximate
06:33PM 71.8169 -105.5424 30° Northeast  Level FlightAware Approximate
06:34PM 71.9360 -105.3206 30° Northeast  Level FlightAware Approximate
06:35PM 72.0546 -105.0946 31° Northeast  Level FlightAware Approximate
06:36PM 72.1726 -104.8642 31° Northeast  Level FlightAware Approximate
06:37PM 72.2904 -104.6308 31° Northeast  Level FlightAware Approximate
06:38PM 72.4079 -104.3944 31° Northeast  Level FlightAware Approximate
06:39PM 72.5251 -104.1550 31° Northeast  Level FlightAware Approximate
06:40PM 72.6421 -103.9127 32° Northeast  Level FlightAware Approximate
06:41PM 72.7589 -103.6679 32° Northeast  Level FlightAware Approximate
06:42PM 72.8754 -103.4198 32° Northeast  Level FlightAware Approximate
06:43PM 72.9916 -103.1685 32° Northeast  Level FlightAware Approximate
06:44PM 73.1075 -102.9138 33° Northeast  Level FlightAware Approximate
06:45PM 73.2230 -102.6556 33° Northeast  Level FlightAware Approximate
06:46PM 73.3383 -102.3941 33° Northeast  Level FlightAware Approximate
06:47PM 73.4532 -102.1290 33° Northeast  Level FlightAware Approximate
06:48PM 73.5678 -101.8602 34° Northeast  Level FlightAware Approximate
06:49PM 73.6820 -101.5879 34° Northeast  Level FlightAware Approximate
06:50PM 73.7959 -101.3118 34° Northeast  Level FlightAware Approximate
06:51PM 73.9093 -101.0319 34° Northeast  Level FlightAware Approximate
06:52PM 74.0225 -100.7481 35° Northeast  Level FlightAware Approximate
06:53PM 74.1352 -100.4604 35° Northeast  Level FlightAware Approximate
06:54PM 74.2476 -100.1687 35° Northeast  Level FlightAware Approximate
06:55PM 74.3596 -99.8729 35° Northeast  Level FlightAware Approximate
06:56PM 74.4712 -99.5729 36° Northeast  Level FlightAware Approximate
06:57PM 74.5824 -99.2688 36° Northeast  Level FlightAware Approximate
06:58PM 74.6931 -98.9603 36° Northeast  Level FlightAware Approximate
06:59PM 74.8034 -98.6475 37° Northeast  Level FlightAware Approximate
07:00PM 74.9133 -98.3302 37° Northeast  Level FlightAware Approximate
07:01PM 75.0227 -98.0083 37° Northeast  Level FlightAware Approximate
07:02PM 75.1317 -97.6819 37° Northeast  Level FlightAware Approximate
07:03PM 75.2402 -97.3507 38° Northeast  Level FlightAware Approximate
07:04PM 75.3482 -97.0148 38° Northeast  Level FlightAware Approximate
07:05PM 75.4558 -96.6740 38° Northeast  Level FlightAware Approximate
07:06PM 75.5628 -96.3282 39° Northeast  Level FlightAware Approximate
07:07PM 75.6693 -95.9774 39° Northeast  Level FlightAware Approximate
07:08PM 75.7754 -95.6214 39° Northeast  Level FlightAware Approximate
07:09PM 75.8808 -95.2603 40° Northeast  Level FlightAware Approximate
07:10PM 75.9857 -94.8938 40° Northeast  Level FlightAware Approximate
07:11PM 76.0901 -94.5219 41° Northeast  Level FlightAware Approximate
07:12PM 76.1939 -94.1445 41° Northeast  Level FlightAware Approximate
07:13PM 76.2969 -93.7607 41° Northeast  Level FlightAware Approximate
07:14PM 76.3994 -93.3713 42° Northeast  Level FlightAware Approximate
07:15PM 76.5012 -92.9760 42° Northeast  Level FlightAware Approximate
07:16PM 76.6024 -92.5749 42° Northeast  Level FlightAware Approximate
07:17PM 76.7029 -92.1678 43° Northeast  Level FlightAware Approximate
07:18PM 76.8028 -91.7547 43° Northeast  Level FlightAware Approximate
07:19PM 76.9021 -91.3353 44° Northeast  Level FlightAware Approximate
07:20PM 77.0006 -90.9097 44° Northeast  Level FlightAware Approximate
07:21PM 77.0984 -90.4778 44° Northeast  Level FlightAware Approximate
07:22PM 77.1955 -90.0393 45° Northeast  Level FlightAware Approximate
07:23PM 77.2919 -89.5944 45° Northeast  Level FlightAware Approximate
07:24PM 77.3876 -89.1427 46° Northeast  Level FlightAware Approximate
07:25PM 77.4824 -88.6843 46° Northeast  Level FlightAware Approximate
07:26PM 77.5765 -88.2190 47° Northeast  Level FlightAware Approximate
07:27PM 77.6697 -87.7468 47° Northeast  Level FlightAware Approximate
07:28PM 77.7622 -87.2675 48° Northeast  Level FlightAware Approximate
07:29PM 77.8538 -86.7811 48° Northeast  Level FlightAware Approximate
07:30PM 77.9445 -86.2874 49° Northeast  Level FlightAware Approximate
07:31PM 78.0344 -85.7864 49° Northeast  Level FlightAware Approximate
07:32PM 78.1233 -85.2779 49° Northeast  Level FlightAware Approximate
07:33PM 78.2113 -84.7619 50° Northeast  Level FlightAware Approximate
07:34PM 78.2984 -84.2384 50° Northeast  Level FlightAware Approximate
07:35PM 78.3846 -83.7071 51° Northeast  Level FlightAware Approximate
07:36PM 78.4697 -83.1680 52° Northeast  Level FlightAware Approximate
07:37PM 78.5538 -82.6211 52° Northeast  Level FlightAware Approximate
07:38PM 78.6369 -82.0662 53° Northeast  Level FlightAware Approximate
07:39PM 78.7189 -81.5033 53° Northeast  Level FlightAware Approximate
07:40PM 78.7999 -80.9324 54° Northeast  Level FlightAware Approximate
07:41PM 78.8798 -80.3532 54° Northeast  Level FlightAware Approximate
07:42PM 78.9585 -79.7659 55° Northeast  Level FlightAware Approximate
07:43PM 79.0361 -79.1703 55° Northeast  Level FlightAware Approximate
07:44PM 79.1125 -78.5664 56° Northeast  Level FlightAware Approximate
07:45PM 79.1887 -77.9573 56° Northeast  Level FlightAware Approximate
07:46PM 79.2637 -77.3399 57° Northeast  Level FlightAware Approximate
07:47PM 79.3374 -76.7140 57° Northeast  Level FlightAware Approximate
07:48PM 79.4099 -76.0796 58° Northeast  Level FlightAware Approximate
07:49PM 79.4811 -75.4366 59° Northeast  Level FlightAware Approximate
07:50PM 79.5510 -74.7850 59° Northeast  Level FlightAware Approximate
07:51PM 79.6196 -74.1248 60° Northeast  Level FlightAware Approximate
07:52PM 79.6868 -73.4560 60° Northeast  Level FlightAware Approximate
07:53PM 79.7526 -72.7786 61° Northeast  Level FlightAware Approximate
07:54PM 79.8170 -72.0927 62° Northeast  Level FlightAware Approximate
07:55PM 79.8799 -71.3982 62° Northeast  Level FlightAware Approximate
07:56PM 79.9414 -70.6953 63° Northeast  Level FlightAware Approximate
07:57PM 80.0013 -69.9838 64° Northeast  Level FlightAware Approximate
07:58PM 80.0598 -69.2641 65° Northeast  Level FlightAware Approximate
07:59PM 80.1180 -68.5395 65° Northeast  Level FlightAware Approximate
08:00PM 80.1756 -67.8089 65° Northeast  Level FlightAware Approximate
08:01PM 80.2315 -67.0698 66° East  Level FlightAware Approximate
08:02PM 80.2858 -66.3225 66° East  Level FlightAware Approximate
08:03PM 80.3385 -65.5669 67° East  Level FlightAware Approximate
08:04PM 80.3896 -64.8033 68° East  Level FlightAware Approximate
08:05PM 80.4389 -64.0317 69° East  Level FlightAware Approximate
08:06PM 80.4865 -63.2523 69° East  Level FlightAware Approximate
08:07PM 80.5324 -62.4654 70° East  Level FlightAware Approximate
08:08PM 80.5765 -61.6709 71° East  Level FlightAware Approximate
08:09PM 80.6188 -60.8692 72° East  Level FlightAware Approximate
08:10PM 80.6593 -60.0605 72° East  Level FlightAware Approximate
08:11PM 80.6980 -59.2449 73° East  Level FlightAware Approximate
08:12PM 80.7351 -58.4233 74° East  Level FlightAware Approximate
08:13PM 80.7705 -57.5957 75° East  Level FlightAware Approximate
08:14PM 80.8041 -56.7620 75° East  Level FlightAware Approximate
08:15PM 80.8358 -55.9224 76° East  Level FlightAware Approximate
08:16PM 80.8655 -55.0773 77° East  Level FlightAware Approximate
08:17PM 80.8932 -54.2268 78° East  Level FlightAware Approximate
08:18PM 80.9190 -53.3713 79° East  Level FlightAware Approximate
08:19PM 80.9427 -52.5113 80° East  Level FlightAware Approximate
08:20PM 80.9644 -51.6469 80° East  Level FlightAware Approximate
08:21PM 80.9841 -50.7786 81° East  Level FlightAware Approximate
08:22PM 81.0025 -49.9074 80° East  Level FlightAware Approximate
08:23PM 81.0249 -49.0380 80° East  Level FlightAware Approximate
08:24PM 81.0452 -48.1645 81° East  Level FlightAware Approximate
08:25PM 81.0635 -47.2872 82° East  Level FlightAware Approximate
08:26PM 81.0797 -46.4065 83° East  Level FlightAware Approximate
08:27PM 81.0938 -45.5229 84° East  Level FlightAware Approximate
08:28PM 81.1059 -44.6367 85° East  Level FlightAware Approximate
08:29PM 81.1158 -43.7483 85° East  Level FlightAware Approximate
08:30PM 81.1237 -42.8582 86° East  Level FlightAware Approximate
08:31PM 81.1294 -41.9667 87° East  Level FlightAware Approximate
08:32PM 81.1330 -41.0743 88° East  Level FlightAware Approximate
08:33PM 81.1345 -40.1814 89° East  Level FlightAware Approximate
08:34PM 81.1339 -39.2883 90° East  Level FlightAware Approximate
08:35PM 81.1311 -38.3957 91° East  Level FlightAware Approximate
08:36PM 81.1263 -37.5037 92° East  Level FlightAware Approximate
08:37PM 81.1193 -36.6130 92° East  Level FlightAware Approximate
08:38PM 81.1102 -35.7239 93° East  Level FlightAware Approximate
08:39PM 81.0990 -34.8367 94° East  Level FlightAware Approximate
08:40PM 81.0857 -33.9520 95° East  Level FlightAware Approximate
08:41PM 81.0703 -33.0701 96° East  Level FlightAware Approximate
08:42PM 81.0529 -32.1914 97° East  Level FlightAware Approximate
08:43PM 81.0334 -31.3163 98° East  Level FlightAware Approximate
08:44PM 81.0118 -30.4452 99° East  Level FlightAware Approximate
08:45PM 80.9915 -29.5751 97° East  Level FlightAware Approximate
08:46PM 80.9725 -28.7054 97° East  Level FlightAware Approximate
08:47PM 80.9515 -27.8395 98° East  Level FlightAware Approximate
08:48PM 80.9285 -26.9778 99° East  Level FlightAware Approximate
08:49PM 80.9035 -26.1206 100° East  Level FlightAware Approximate
08:50PM 80.8764 -25.2682 101° East  Level FlightAware Approximate
08:51PM 80.8475 -24.4210 102° East  Level FlightAware Approximate
08:52PM 80.8165 -23.5793 103° East  Level FlightAware Approximate
08:53PM 80.7836 -22.7434 103° East  Level FlightAware Approximate
08:54PM 80.7488 -21.9135 104° East  Level FlightAware Approximate
08:55PM 80.7121 -21.0900 105° East  Level FlightAware Approximate
08:56PM 80.6736 -20.2731 106° East  Level FlightAware Approximate
08:57PM 80.6331 -19.4629 107° East  Level FlightAware Approximate
08:58PM 80.5920 -18.6576 107° East  Level FlightAware Approximate
08:59PM 80.5491 -17.8594 108° East  Level FlightAware Approximate
09:00PM 80.5044 -17.0685 109° East  Level FlightAware Approximate
09:01PM 80.4579 -16.2851 109° East  Level FlightAware Approximate
09:02PM 80.4097 -15.5094 110° East  Level FlightAware Approximate
09:03PM 80.3598 -14.7415 111° Southeast  Level FlightAware Approximate
09:04PM 80.3082 -13.9815 112° Southeast  Level FlightAware Approximate
09:05PM 80.2550 -13.2296 112° Southeast  Level FlightAware Approximate
09:06PM 80.2001 -12.4860 113° Southeast  Level FlightAware Approximate
09:07PM 80.1436 -11.7507 114° Southeast  Level FlightAware Approximate
09:08PM 80.0856 -11.0238 115° Southeast  Level FlightAware Approximate
09:09PM 80.0260 -10.3053 115° Southeast  Level FlightAware Approximate
09:10PM 79.9678 -9.5876 114° Southeast  Level FlightAware Approximate
09:11PM 79.9102 -8.8720 114° Southeast  Level FlightAware Approximate
09:12PM 79.8511 -8.1646 115° Southeast  Level FlightAware Approximate
09:13PM 79.7904 -7.4654 116° Southeast  Level FlightAware Approximate
09:14PM 79.7283 -6.7745 116° Southeast  Level FlightAware Approximate
09:15PM 79.6648 -6.0919 117° Southeast  Level FlightAware Approximate
09:16PM 79.5999 -5.4177 118° Southeast  Level FlightAware Approximate
09:17PM 79.5335 -4.7518 118° Southeast  Level FlightAware Approximate
09:18PM 79.4667 -4.0916 119° Southeast  Level FlightAware Approximate
09:19PM 79.3985 -3.4397 119° Southeast  Level FlightAware Approximate
09:20PM 79.3289 -2.7962 120° Southeast  Level FlightAware Approximate
09:21PM 79.2581 -2.1610 121° Southeast  Level FlightAware Approximate
09:22PM 79.1860 -1.5340 121° Southeast  Level FlightAware Approximate
09:23PM 79.1127 -0.9154 122° Southeast  Level FlightAware Approximate
09:24PM 79.0381 -0.3049 123° Southeast  Level FlightAware Approximate
09:25PM 78.9594 0.2867 126° Southeast  Level FlightAware Approximate
09:26PM 78.8768 0.8592 127° Southeast  Level FlightAware Approximate
09:27PM 78.7930 1.4233 127° Southeast  Level FlightAware Approximate
09:28PM 78.7083 1.9791 128° Southeast  Level FlightAware Approximate
09:29PM 78.6225 2.5267 128° Southeast  Level FlightAware Approximate
09:30PM 78.5357 3.0661 129° Southeast  Level FlightAware Approximate
09:31PM 78.4479 3.5975 129° Southeast  Level FlightAware Approximate
09:32PM 78.3592 4.1209 130° Southeast  Level FlightAware Approximate
09:33PM 78.2695 4.6365 130° Southeast  Level FlightAware Approximate
09:34PM 78.1790 5.1444 131° Southeast  Level FlightAware Approximate
09:35PM 78.0875 5.6445 131° Southeast  Level FlightAware Approximate
09:36PM 77.9952 6.1372 132° Southeast  Level FlightAware Approximate
09:37PM 77.9020 6.6224 132° Southeast  Level FlightAware Approximate
09:38PM 77.8080 7.1002 133° Southeast  Level FlightAware Approximate
09:39PM 77.7132 7.5708 133° Southeast  Level FlightAware Approximate
09:40PM 77.6176 8.0343 134° Southeast  Level FlightAware Approximate
09:41PM 77.5212 8.4908 134° Southeast  Level FlightAware Approximate
09:42PM 77.4241 8.9403 135° Southeast  Level FlightAware Approximate
09:43PM 77.3262 9.3831 135° Southeast  Level FlightAware Approximate
09:44PM 77.2276 9.8192 136° Southeast  Level FlightAware Approximate
09:45PM 77.1283 10.2486 136° Southeast  Level FlightAware Approximate
09:46PM 77.0284 10.6716 136° Southeast  Level FlightAware Approximate
09:47PM 76.9277 11.0882 137° Southeast  Level FlightAware Approximate
09:48PM 76.8264 11.4986 137° Southeast  Level FlightAware Approximate
09:49PM 76.7245 11.9029 138° Southeast  Level FlightAware Approximate
09:50PM 76.6219 12.3010 138° Southeast  Level FlightAware Approximate
09:51PM 76.5187 12.6932 138° Southeast  Level FlightAware Approximate
09:52PM 76.4150 13.0796 139° Southeast  Level FlightAware Approximate
09:53PM 76.3106 13.4602 139° Southeast  Level FlightAware Approximate
09:54PM 76.2057 13.8351 139° Southeast  Level FlightAware Approximate
09:55PM 76.1002 14.2044 140° Southeast  Level FlightAware Approximate
09:56PM 75.9941 14.5683 140° Southeast  Level FlightAware Approximate
09:57PM 75.8876 14.9268 141° Southeast  Level FlightAware Approximate
09:58PM 75.7805 15.2801 141° Southeast  Level FlightAware Approximate
09:59PM 75.6732 15.6299 141° Southeast  Level FlightAware Approximate
10:00PM 75.5657 15.9761 141° Southeast  Level FlightAware Approximate
10:01PM 75.4577 16.3172 142° Southeast  Level FlightAware Approximate
10:02PM 75.3493 16.6534 142° Southeast  Level FlightAware Approximate
10:03PM 75.2403 16.9848 142° Southeast  Level FlightAware Approximate
10:04PM 75.1309 17.3114 142° Southeast  Level FlightAware Approximate
10:05PM 75.0211 17.6333 143° Southeast  Level FlightAware Approximate
10:06PM 74.9108 17.9506 143° Southeast  Level FlightAware Approximate
10:07PM 74.8000 18.2635 143° Southeast  Level FlightAware Approximate
10:08PM 74.6889 18.5718 144° Southeast  Level FlightAware Approximate
10:09PM 74.5773 18.8759 144° Southeast  Level FlightAware Approximate
10:10PM 74.4623 19.0091 208° Southwest  Level FlightAware Approximate
10:11PM 74.3404 18.7715 208° Southwest  Level FlightAware Approximate
10:12PM 74.2182 18.5376 208° Southwest  Level FlightAware Approximate
10:13PM 74.0958 18.3072 207° Southwest  Level FlightAware Approximate
10:14PM 73.9731 18.0802 207° Southwest  Level FlightAware Approximate
10:15PM 73.8503 17.8565 207° Southwest  Level FlightAware Approximate
10:16PM 73.7271 17.6362 207° Southwest  Level FlightAware Approximate
10:17PM 73.6037 17.4195 206° Southwest  Level FlightAware Approximate
10:18PM 73.4800 17.2068 206° Southwest  Level FlightAware Approximate
10:19PM 73.3561 16.9971 206° Southwest  Level FlightAware Approximate
10:20PM 73.2319 16.7904 206° Southwest  Level FlightAware Approximate
10:21PM 73.1076 16.5867 205° Southwest  Level FlightAware Approximate
10:22PM 72.9830 16.3859 205° Southwest  Level FlightAware Approximate
10:23PM 72.8583 16.1879 205° Southwest  Level FlightAware Approximate
10:24PM 72.7333 15.9927 205° Southwest  Level FlightAware Approximate
10:25PM 72.6082 15.8003 205° Southwest  Level FlightAware Approximate
10:26PM 72.4829 15.6104 205° Southwest  Level FlightAware Approximate
10:27PM 72.3574 15.4232 204° Southwest  Level FlightAware Approximate
10:28PM 72.2318 15.2386 204° Southwest  Level FlightAware Approximate
10:29PM 72.1059 15.0565 204° Southwest  Level FlightAware Approximate
10:30PM 71.9799 14.8768 204° Southwest  Level FlightAware Approximate
10:31PM 71.8538 14.6995 204° Southwest  Level FlightAware Approximate
10:32PM 71.7275 14.5247 203° Southwest  Level FlightAware Approximate
10:32PM 72.3900 24.5230 203° Southwest 488 562 37,000  Level FlightAware
10:33PM 71.6010 14.3521 203° Southwest  Level FlightAware Approximate
10:33PM 72.3160 24.6860 146° Southeast 489 563 37,000  Level FlightAware
10:33PM 72.2430 24.8450 146° Southeast 489 563 37,000  Level FlightAware
10:34PM 72.1510 25.0440 146° Southeast 489 563 37,000  Level FlightAware
10:35PM 72.0740 25.2100 146° Southeast 496 571 37,000  Level FlightAware
10:35PM 71.9900 25.3860 147° Southeast 495 570 37,000  Level FlightAware
10:36PM 71.9120 25.5510 147° Southeast 495 570 37,000  Level FlightAware
10:37PM 71.8360 25.7080 147° Southeast 495 570 37,000  Level FlightAware
10:37PM 71.7500 25.8840 147° Southeast 496 571 37,000  Level FlightAware
10:38PM 71.6720 26.0420 147° Southeast 496 571 37,000  Level FlightAware
10:39PM 71.5830 26.2220 147° Southeast 496 571 37,000  Level FlightAware
10:40PM 71.5050 26.3760 148° Southeast 497 572 37,000  Level FlightAware
10:40PM 71.4290 26.5260 148° Southeast 497 572 37,000  Level FlightAware
10:41PM 71.3420 26.6950 148° Southeast 496 571 37,000  Level FlightAware
10:42PM 71.2640 26.8460 148° Southeast 494 568 37,000  Level FlightAware
10:42PM 71.1870 26.9930 148° Southeast 492 566 37,000  Level FlightAware
10:43PM 71.0990 27.1600 148° Southeast 486 559 37,000  Level FlightAware
10:44PM 71.0240 27.3000 149° Southeast 475 547 37,000  Level FlightAware
10:44PM 70.9560 27.4260 149° Southeast 473 544 37,000  Level FlightAware
10:45PM 70.8620 27.5990 149° Southeast 472 543 37,000  Level FlightAware
10:46PM 70.7790 27.7510 149° Southeast 474 545 37,000  Level FlightAware
10:47PM 70.7010 27.8920 149° Southeast 482 555 37,000  Level FlightAware
10:47PM 70.6260 28.0260 149° Southeast 486 559 37,000  Level FlightAware
10:48PM 70.5370 28.1830 150° Southeast 488 562 37,000  Level FlightAware
10:49PM 70.4600 28.3180 150° Southeast 489 563 37,000  Level FlightAware
10:49PM 70.3720 28.4700 150° Southeast 481 554 37,000  Level FlightAware
10:50PM 70.2940 28.6050 150° Southeast 482 555 37,000  Level FlightAware
10:51PM 70.2170 28.7360 150° Southeast 483 556 37,000  Level FlightAware
10:51PM 70.1280 28.8860 150° Southeast 484 557 37,000  Level FlightAware
10:52PM 70.0490 29.0180 150° Southeast 485 558 37,000  Level FlightAware
10:53PM 69.9710 29.1480 150° Southeast 485 558 37,000  Level FlightAware
10:54PM 69.8810 29.2950 151° Southeast 496 571 37,000  Level FlightAware
10:54PM 69.8020 29.4240 151° Southeast 497 572 37,000  Level FlightAware
10:55PM 69.7200 29.5560 151° Southeast 499 574 37,000  Level FlightAware
10:56PM 69.6310 29.6990 151° Southeast 500 575 37,000  Level FlightAware
10:56PM 69.5390 29.8440 151° Southeast 500 575 37,000  Level FlightAware
10:57PM 69.4730 29.9480 151° Southeast 493 567 37,000  Level FlightAware
10:58PM 69.3920 30.0810 150° Southeast 493 567 37,000  Level FlightAware
10:58PM 69.3250 30.1910 150° Southeast 493 567 37,000  Level FlightAware
10:59PM 69.2580 30.3000 150° Southeast 493 567 37,000  Level FlightAware
11:00PM 69.1530 30.6290 132° Southeast 508 585 37,000  Level FlightAware
11:01PM 69.0600 30.8330 142° Southeast 508 585 37,000  Level FlightAware
11:01PM 68.9910 30.9870 141° Southeast 509 586 37,000  Level FlightAware
11:02PM 68.9210 31.1360 143° Southeast 510 587 37,000  Level FlightAware
11:03PM 68.8490 31.2910 142° Southeast 509 586 37,000  Level FlightAware
11:03PM 68.7710 31.4550 143° Southeast 508 585 37,000  Level FlightAware
11:04PM 68.6860 31.6350 142° Southeast 507 583 37,000  Level FlightAware
11:05PM 68.5930 31.8000 147° Southeast 502 578 37,000  Level FlightAware
11:05PM 68.5080 31.8930 158° South 497 572 37,000  Level FlightAware
11:06PM 68.4100 31.9910 160° South 498 573 37,000  Level FlightAware
11:07PM 68.3070 32.0940 160° South 499 574 37,000  Level FlightAware
11:08PM 68.2100 32.1900 160° South 499 574 37,000  Level FlightAware
11:09PM 68.1200 32.2800 160° South 502 578 37,000  Level FlightAware
11:09PM 68.0520 32.3500 159° South 502 578 37,000  Level FlightAware
11:10PM 67.9320 32.4500 163° South 503 579 37,000  Level FlightAware
11:11PM 67.8150 32.5330 165° South 504 580 37,000  Level FlightAware
11:12PM 67.7090 32.6070 165° South 506 582 37,000  Level FlightAware
11:12PM 67.6380 32.6580 165° South 506 582 37,000  Level FlightAware
11:13PM 67.5390 32.7260 165° South 37,000  Level FlightAware
11:14PM 67.4250 32.8050 165° South 501 577 37,000  Level FlightAware
11:14PM 67.3340 32.8760 163° South 500 575 37,000  Level FlightAware
11:15PM 67.2480 32.9400 164° South 505 581 37,000  Level FlightAware
11:16PM 67.1500 33.0160 163° South 504 580 37,000  Level FlightAware
11:16PM 67.0730 33.0700 165° South 503 579 37,000  Level FlightAware
11:17PM 66.9480 33.1610 164° South 502 578 37,000  Level FlightAware
11:18PM 66.8590 33.2250 164° South 503 579 37,000  Level FlightAware
11:19PM 66.7710 33.2890 164° South 503 579 37,000  Level FlightAware
11:19PM 66.6720 33.3590 164° South 502 578 37,000  Level FlightAware
11:20PM 66.5780 33.4260 164° South 502 578 37,000  Level FlightAware
11:21PM 66.4810 33.4940 164° South 501 577 37,000  Level FlightAware
11:21PM 66.3950 33.5540 164° South 501 577 37,000  Level FlightAware
11:22PM 66.3250 33.6040 164° South 501 577 37,000  Level FlightAware
11:23PM 66.2300 33.6710 164° South 501 577 37,000  Level FlightAware
11:23PM 66.1540 33.7250 164° South 501 577 37,000  Level FlightAware
11:24PM 66.0790 33.7790 164° South 501 577 37,000  Level FlightAware
11:25PM 66.0030 33.8320 164° South 501 577 37,000  Level FlightAware
11:25PM 65.9270 33.8850 164° South 501 577 37,000  Level FlightAware
11:26PM 65.8320 33.9520 164° South 501 577 37,000  Level FlightAware
11:27PM 65.7570 34.0050 164° South 501 577 37,000  Level FlightAware
11:28PM 65.5450 34.1190 167° South 488 562 37,000  Level FlightAware
11:29PM 65.4710 34.1670 165° South 488 562 37,000  Level FlightAware
11:29PM 65.5930 34.0880 345° North 37,000  Level FlightAware
11:29PM 65.3550 34.2400 165° South 482 555 37,000  Level FlightAware
11:30PM 65.2740 34.2910 165° South 481 554 37,000  Level FlightAware
11:31PM 65.1730 34.3550 165° South 479 551 37,000  Level FlightAware
11:32PM 65.0500 34.4300 166° South 477 549 37,000  Level FlightAware
11:32PM 64.9660 34.4830 165° South 477 549 37,000  Level FlightAware
11:33PM 64.8860 34.5410 163° South 480 552 37,000  Level FlightAware
11:34PM 64.7760 34.6280 161° South 489 563 37,000  Level FlightAware
11:34PM 64.6930 34.6930 161° South 493 567 37,000  Level FlightAware
11:35PM 64.6160 34.7520 162° South 491 565 37,000  Level FlightAware
11:36PM 64.5130 34.8310 162° South 479 551 37,000  Level FlightAware
11:37PM 64.4270 34.8960 162° South 481 554 37,000  Level FlightAware
11:37PM 64.3310 34.9680 162° South 480 552 37,000  Level FlightAware
11:38PM 64.2470 35.0310 162° South 479 551 37,000  Level FlightAware
11:39PM 64.1660 35.0920 162° South 478 550 37,000  Level FlightAware
11:39PM 64.0730 35.1610 162° South 479 551 37,000  Level FlightAware
11:40PM 63.9850 35.2260 162° South 481 554 37,000  Level FlightAware
11:41PM 63.9010 35.2860 163° South 480 552 37,000  Level FlightAware
11:41PM 63.8100 35.3530 162° South 479 551 37,000  Level FlightAware
11:42PM 63.7210 35.4160 163° South 480 552 37,000  Level FlightAware
11:43PM 63.6370 35.4760 162° South 482 555 37,000  Level FlightAware
11:44PM 63.5420 35.5440 162° South 483 556 37,000  Level FlightAware
11:44PM 63.4660 35.5970 163° South 483 556 37,000  Level FlightAware
11:45PM 63.3710 35.6630 163° South 483 556 37,000  Level FlightAware
11:46PM 63.2760 35.7290 163° South 483 556 37,000  Level FlightAware
11:46PM 63.1790 35.7960 163° South 486 559 37,000  Level FlightAware
11:47PM 63.0980 35.8530 162° South 485 558 37,000  Level FlightAware
11:48PM 63.0130 35.9100 163° South 486 559 37,000  Level FlightAware
11:48PM 62.9280 35.9680 163° South 497 572 37,000  Level FlightAware
11:49PM 62.8290 36.0350 163° South 498 573 37,000  Level FlightAware
11:50PM 62.7480 36.0900 163° South 500 575 37,000  Level FlightAware
11:51PM 62.6390 36.1630 163° South 503 579 37,000  Level FlightAware
11:51PM 62.5400 36.2280 163° South 506 582 37,000  Level FlightAware
11:52PM 62.4380 36.2950 163° South 509 586 37,000  Level FlightAware
11:53PM 62.3220 36.3710 163° South 510 587 37,000  Level FlightAware
11:54PM 62.2390 36.4250 163° South 510 587 37,000  Level FlightAware
11:54PM 62.1090 36.5080 163° South 510 587 37,000  Level FlightAware
11:55PM 62.0170 36.5670 163° South 513 590 37,000  Level FlightAware
11:56PM 61.9190 36.6290 163° South 516 594 37,000  Level FlightAware
11:57PM 61.8340 36.6830 163° South 517 595 37,000  Level FlightAware
11:57PM 61.7570 36.7340 163° South 517 595 37,000  Level FlightAware
11:58PM 61.6790 36.7840 163° South 517 595 37,000  Level FlightAware
11:59PM 61.8870 36.6490 343° North 37,000  Level FlightAware
12:01AM 61.6469 36.9133 152° Southeast  Level Estimated
12:02AM 61.5247 37.0461 153° Southeast  Level Estimated
12:03AM 61.4023 37.1779 153° Southeast  Level Estimated
12:04AM 61.2797 37.3086 153° Southeast  Level Estimated
12:05AM 61.1571 37.4383 153° Southeast  Level Estimated
12:06AM 61.0343 37.5671 153° Southeast  Level Estimated
12:07AM 60.9114 37.6948 153° Southeast  Level Estimated
12:08AM 60.7884 37.8215 153° Southeast  Level Estimated
12:09AM 60.6653 37.9473 153° Southeast  Level Estimated
12:10AM 60.5421 38.0721 154° Southeast  Level Estimated
12:11AM 60.4187 38.1960 154° Southeast  Level Estimated
12:12AM 60.2952 38.3189 154° Southeast  Level Estimated
12:13AM 60.1716 38.4409 154° Southeast  Level Estimated
12:14AM 60.0479 38.5620 154° Southeast  Level Estimated
12:15AM 59.9241 38.6822 154° Southeast  Level Estimated
12:15AM 59.3940 38.4740 154° Southeast 517 595 38,000  Level FlightAware
12:16AM 59.2970 38.4730 180° South 506 582 38,000 -120 Level FlightAware
12:18AM 59.0855 38.6785 153° Southeast  Level Estimated
12:19AM 58.9621 38.7970 154° Southeast  Level Estimated
12:20AM 58.8386 38.9146 154° Southeast  Level Estimated
12:21AM 58.7150 39.0315 154° Southeast  Level Estimated
12:22AM 58.5913 39.1475 154° Southeast  Level Estimated
12:23AM 58.4675 39.2627 154° Southeast  Level Estimated
12:24AM 58.3436 39.3771 154° Southeast  Level Estimated
12:25AM 58.2196 39.4906 154° Southeast  Level Estimated
12:26AM 58.0955 39.6034 154° Southeast  Level Estimated
12:27AM 57.9713 39.7154 154° Southeast  Level Estimated
12:28AM 57.8470 39.8267 155° Southeast  Level Estimated
12:29AM 57.7226 39.9371 155° Southeast  Level Estimated
12:30AM 57.5981 40.0468 155° Southeast  Level Estimated
12:31AM 57.4735 40.1558 155° Southeast  Level Estimated
12:32AM 57.3488 40.2640 155° Southeast  Level Estimated
12:33AM 57.2241 40.3715 155° Southeast  Level Estimated
12:34AM 57.0992 40.4783 155° Southeast  Level Estimated
12:35AM 56.9743 40.5843 155° Southeast  Level Estimated
12:36AM 56.8492 40.6897 155° Southeast  Level Estimated
12:37AM 56.7241 40.7943 155° Southeast  Level Estimated
12:38AM 56.5989 40.8983 155° Southeast  Level Estimated
12:39AM 56.4736 41.0015 156° South  Level Estimated
12:40AM 56.3482 41.1041 156° South  Level Estimated
12:41AM 56.2227 41.2060 156° South  Level Estimated
12:42AM 56.0971 41.3072 156° South  Level Estimated
12:43AM 55.9715 41.4078 156° South  Level Estimated
12:44AM 55.8458 41.5077 156° South  Level Estimated
12:45AM 55.7200 41.6070 156° South  Level Estimated
12:46AM 55.5941 41.7057 156° South  Level Estimated
12:47AM 55.4682 41.8037 156° South  Level Estimated
12:48AM 55.3421 41.9011 156° South  Level Estimated
12:49AM 55.2160 41.9978 156° South  Level Estimated
12:50AM 55.0898 42.0940 156° South  Level Estimated
12:51AM 54.9635 42.1895 157° South  Level Estimated
12:52AM 54.8372 42.2845 157° South  Level Estimated
12:53AM 54.7108 42.3789 157° South  Level Estimated
12:54AM 54.5843 42.4726 157° South  Level Estimated
12:55AM 54.4577 42.5658 157° South  Level Estimated
12:56AM 54.3311 42.6585 157° South  Level Estimated
12:57AM 54.2044 42.7505 157° South  Level Estimated
12:58AM 54.0776 42.8420 157° South  Level Estimated
12:59AM 53.9508 42.9329 157° South  Level Estimated
01:00AM 53.8239 43.0233 157° South  Level Estimated
01:01AM 53.6969 43.1132 157° South  Level Estimated
01:02AM 53.5699 43.2024 157° South  Level Estimated
01:03AM 53.4428 43.2912 157° South  Level Estimated
01:04AM 53.3156 43.3794 157° South  Level Estimated
01:05AM 53.1884 43.4671 158° South  Level Estimated
01:06AM 53.0611 43.5543 158° South  Level Estimated
01:07AM 52.9337 43.6410 158° South  Level Estimated
01:08AM 52.8063 43.7272 158° South  Level Estimated
01:09AM 52.6788 43.8128 158° South  Level Estimated
01:10AM 52.5512 43.8980 158° South  Level Estimated
01:11AM 52.4236 43.9827 158° South  Level Estimated
01:12AM 52.2960 44.0668 158° South  Level Estimated
01:13AM 52.1682 44.1505 158° South  Level Estimated
01:14AM 52.0404 44.2337 158° South  Level Estimated
01:15AM 51.9126 44.3165 158° South  Level Estimated
01:16AM 51.7847 44.3988 158° South  Level Estimated
01:17AM 51.6567 44.4806 158° South  Level Estimated
01:18AM 51.5287 44.5619 158° South  Level Estimated
01:19AM 51.4006 44.6428 158° South  Level Estimated
01:20AM 51.2725 44.7232 159° South  Level Estimated
01:21AM 51.1443 44.8032 159° South  Level Estimated
01:22AM 51.0160 44.8828 159° South  Level Estimated
01:23AM 50.8878 44.9619 159° South  Level Estimated
01:24AM 50.7594 45.0406 159° South  Level Estimated
01:25AM 50.6310 45.1188 159° South  Level Estimated
01:26AM 50.5026 45.1966 159° South  Level Estimated
01:27AM 50.3741 45.2740 159° South  Level Estimated
01:28AM 50.2455 45.3510 159° South  Level Estimated
01:29AM 50.1169 45.4275 159° South  Level Estimated
01:30AM 49.9882 45.5037 159° South  Level Estimated
01:31AM 49.8595 45.5794 159° South  Level Estimated
01:32AM 49.7308 45.6548 159° South  Level Estimated
01:33AM 49.6020 45.7297 159° South  Level Estimated
01:34AM 49.4731 45.8043 159° South  Level Estimated
01:35AM 49.3442 45.8784 159° South  Level Estimated
01:36AM 49.2153 45.9522 160° South  Level Estimated
01:37AM 49.0863 46.0256 160° South  Level Estimated
01:38AM 48.9573 46.0986 160° South  Level Estimated
01:39AM 48.8282 46.1712 160° South  Level Estimated
01:40AM 48.6991 46.2435 160° South  Level Estimated
01:41AM 48.5699 46.3153 160° South  Level Estimated
01:42AM 48.4407 46.3869 160° South  Level Estimated
01:43AM 48.3114 46.4580 160° South  Level Estimated
01:44AM 48.1821 46.5288 160° South  Level Estimated
01:45AM 48.0527 46.5993 160° South  Level Estimated
01:46AM 47.9234 46.6693 160° South  Level Estimated
01:47AM 47.7939 46.7391 160° South  Level Estimated
01:48AM 47.6644 46.8085 160° South  Level Estimated
01:49AM 47.5349 46.8775 160° South  Level Estimated
01:50AM 47.4053 46.9462 160° South  Level Estimated
01:51AM 47.2757 47.0146 160° South  Level Estimated
01:52AM 47.1461 47.0826 160° South  Level Estimated
01:53AM 47.0164 47.1503 160° South  Level Estimated
01:54AM 46.8867 47.2177 160° South  Level Estimated
01:55AM 46.7570 47.2848 161° South  Level Estimated
01:56AM 46.6272 47.3515 161° South  Level Estimated
01:57AM 46.4973 47.4179 161° South  Level Estimated
01:58AM 46.3674 47.4840 161° South  Level Estimated
01:59AM 46.2375 47.5498 161° South  Level Estimated
02:00AM 46.1076 47.6152 161° South  Level Estimated
02:01AM 45.9776 47.6804 161° South  Level Estimated
02:02AM 45.8475 47.7453 161° South  Level Estimated
02:03AM 45.7175 47.8098 161° South  Level Estimated
02:04AM 45.5874 47.8741 161° South  Level Estimated
02:05AM 45.4573 47.9380 161° South  Level Estimated
02:06AM 45.3271 48.0017 161° South  Level Estimated
02:07AM 45.1969 48.0650 161° South  Level Estimated
02:08AM 45.0666 48.1281 161° South  Level Estimated
02:09AM 44.9364 48.1909 161° South  Level Estimated
02:10AM 44.8061 48.2534 161° South  Level Estimated
02:11AM 44.6757 48.3157 161° South  Level Estimated
02:12AM 44.5453 48.3776 161° South  Level Estimated
02:13AM 44.4149 48.4393 161° South  Level Estimated
02:14AM 44.2845 48.5007 161° South  Level Estimated
02:15AM 44.1540 48.5618 161° South  Level Estimated
02:16AM 44.0235 48.6227 161° South  Level Estimated
02:17AM 43.8930 48.6832 162° South  Level Estimated
02:18AM 43.7624 48.7436 162° South  Level Estimated
02:19AM 43.6318 48.8036 162° South  Level Estimated
02:20AM 43.5011 48.8634 162° South  Level Estimated
02:21AM 43.3705 48.9230 162° South  Level Estimated
02:22AM 43.2398 48.9822 162° South  Level Estimated
02:23AM 43.1091 49.0413 162° South  Level Estimated
02:24AM 42.9783 49.1001 162° South  Level Estimated
02:25AM 42.8475 49.1586 162° South  Level Estimated
02:26AM 42.7167 49.2169 162° South  Level Estimated
02:27AM 42.5858 49.2749 162° South  Level Estimated
02:28AM 42.4549 49.3327 162° South  Level Estimated
02:29AM 42.3241 49.3902 162° South  Level Estimated
02:30AM 42.1931 49.4476 162° South  Level Estimated
02:31AM 42.0622 49.5046 162° South  Level Estimated
02:32AM 41.9312 49.5615 162° South  Level Estimated
02:33AM 41.8002 49.6181 162° South  Level Estimated
02:34AM 41.6691 49.6745 162° South  Level Estimated
02:35AM 41.5380 49.7306 162° South  Level Estimated
02:36AM 41.4069 49.7865 162° South  Level Estimated
02:37AM 41.2758 49.8422 162° South  Level Estimated
02:38AM 41.1446 49.8977 162° South  Level Estimated
02:39AM 41.0135 49.9529 162° South  Level Estimated
02:40AM 40.8823 50.0080 162° South  Level Estimated
02:41AM 40.7510 50.0628 162° South  Level Estimated
02:42AM 40.6198 50.1174 162° South  Level Estimated
02:43AM 40.4885 50.1718 163° South  Level Estimated
02:44AM 40.3572 50.2259 163° South  Level Estimated
02:45AM 40.2258 50.2799 163° South  Level Estimated
02:46AM 40.0945 50.3336 163° South  Level Estimated
02:47AM 39.9631 50.3872 163° South  Level Estimated
02:48AM 39.8317 50.4405 163° South  Level Estimated
02:49AM 39.7003 50.4937 163° South  Level Estimated
02:50AM 39.5688 50.5466 163° South  Level Estimated
02:51AM 39.4373 50.5993 163° South  Level Estimated
02:52AM 39.3058 50.6519 163° South  Level Estimated
02:53AM 39.1743 50.7042 163° South  Level Estimated
02:54AM 39.0428 50.7563 163° South  Level Estimated
02:55AM 38.9112 50.8083 163° South  Level Estimated
02:56AM 38.7796 50.8601 163° South  Level Estimated
02:57AM 38.6480 50.9116 163° South  Level Estimated
02:58AM 38.5163 50.9630 163° South  Level Estimated
02:59AM 38.3847 51.0142 163° South  Level Estimated
03:00AM 38.2530 51.0652 163° South  Level Estimated
03:01AM 38.1213 51.1160 163° South  Level Estimated
03:02AM 37.9895 51.1666 163° South  Level Estimated
03:03AM 37.8578 51.2171 163° South  Level Estimated
03:04AM 37.7260 51.2674 163° South  Level Estimated
03:05AM 37.5942 51.3175 163° South  Level Estimated
03:06AM 37.4624 51.3674 163° South  Level Estimated
03:07AM 37.3305 51.4171 163° South  Level Estimated
03:08AM 37.1987 51.4667 163° South  Level Estimated
03:09AM 37.0668 51.5161 163° South  Level Estimated
03:10AM 36.9349 51.5653 163° South  Level Estimated
03:11AM 36.8030 51.6143 163° South  Level Estimated
03:12AM 36.6710 51.6632 163° South  Level Estimated
03:13AM 36.5391 51.7119 163° South  Level Estimated
03:14AM 36.4071 51.7605 164° South  Level Estimated
03:15AM 36.2751 51.8089 164° South  Level Estimated
03:16AM 36.1431 51.8571 164° South  Level Estimated
03:17AM 36.0110 51.9052 164° South  Level Estimated
03:18AM 35.8790 51.9531 164° South  Level Estimated
03:19AM 35.7469 52.0008 164° South  Level Estimated
03:20AM 35.6148 52.0484 164° South  Level Estimated
03:21AM 35.4827 52.0958 164° South  Level Estimated
03:22AM 35.3506 52.1431 164° South  Level Estimated
03:23AM 35.2184 52.1902 164° South  Level Estimated
03:24AM 35.0863 52.2372 164° South  Level Estimated
03:25AM 34.9541 52.2840 164° South  Level Estimated
03:26AM 34.8219 52.3306 164° South  Level Estimated
03:27AM 34.6896 52.3771 164° South  Level Estimated
03:28AM 34.5574 52.4235 164° South  Level Estimated
03:29AM 34.4251 52.4697 164° South  Level Estimated
03:30AM 34.2929 52.5158 164° South  Level Estimated
03:31AM 34.1606 52.5617 164° South  Level Estimated
03:32AM 34.0283 52.6075 164° South  Level Estimated
03:33AM 33.8959 52.6531 164° South  Level Estimated
03:34AM 33.7636 52.6986 164° South  Level Estimated
03:35AM 33.6312 52.7440 164° South  Level Estimated
03:36AM 33.4989 52.7892 164° South  Level Estimated
03:37AM 33.3665 52.8343 164° South  Level Estimated
03:38AM 33.2341 52.8792 164° South  Level Estimated
03:39AM 33.1016 52.9240 164° South  Level Estimated
03:40AM 32.9692 52.9687 164° South  Level Estimated
03:41AM 32.8367 53.0132 164° South  Level Estimated
03:42AM 32.7043 53.0576 164° South  Level Estimated
03:43AM 32.5718 53.1019 164° South  Level Estimated
03:44AM 32.4393 53.1460 164° South  Level Estimated
03:45AM 32.3068 53.1901 164° South  Level Estimated
03:46AM 32.1742 53.2339 164° South  Level Estimated
03:47AM 32.0417 53.2777 164° South  Level Estimated
03:48AM 31.9091 53.3213 164° South  Level Estimated
03:49AM 31.7765 53.3648 164° South  Level Estimated
03:50AM 31.6439 53.4082 164° South  Level Estimated
03:51AM 31.5113 53.4515 164° South  Level Estimated
03:52AM 31.3787 53.4946 164° South  Level Estimated
03:53AM 31.2461 53.5376 165° South  Level Estimated
03:54AM 31.1134 53.5805 165° South  Level Estimated
03:55AM 30.9808 53.6233 165° South  Level Estimated
03:56AM 30.8481 53.6659 165° South  Level Estimated
03:57AM 30.7154 53.7085 165° South  Level Estimated
03:58AM 30.5827 53.7509 165° South  Level Estimated
03:59AM 30.4500 53.7932 165° South  Level Estimated
04:00AM 30.3172 53.8354 165° South  Level Estimated
04:01AM 30.1845 53.8774 165° South  Level Estimated
04:02AM 30.0517 53.9194 165° South  Level Estimated
04:03AM 29.9189 53.9613 165° South  Level Estimated
04:04AM 29.7862 54.0030 165° South  Level Estimated
04:05AM 29.6534 54.0446 165° South  Level Estimated
04:06AM 29.5205 54.0861 165° South  Level Estimated
04:07AM 29.3877 54.1275 165° South  Level Estimated
04:08AM 29.2549 54.1688 165° South  Level Estimated
04:09AM 29.1220 54.2100 165° South  Level Estimated
04:10AM 28.9892 54.2511 165° South  Level Estimated
04:11AM 28.8563 54.2921 165° South  Level Estimated
04:12AM 28.7234 54.3330 165° South  Level Estimated
04:13AM 28.5905 54.3738 165° South  Level Estimated
04:14AM 28.4576 54.4144 165° South  Level Estimated
04:15AM 28.3247 54.4550 165° South  Level Estimated
04:16AM 28.1917 54.4955 165° South  Level Estimated
04:17AM 28.0588 54.5358 165° South  Level Estimated
04:18AM 27.9258 54.5761 165° South  Level Estimated
04:19AM 27.7928 54.6162 165° South  Level Estimated
04:20AM 27.6599 54.6563 165° South  Level Estimated
04:21AM 27.5269 54.6963 165° South  Level Estimated
04:22AM 27.3939 54.7362 165° South  Level Estimated
04:23AM 27.2608 54.7759 165° South  Level Estimated
04:24AM 27.1278 54.8156 165° South  Level Estimated
04:25AM 26.9948 54.8552 165° South  Level Estimated
04:26AM 26.8617 54.8947 165° South  Level Estimated
04:27AM 26.7286 54.9341 165° South  Level Estimated
04:28AM 26.5956 54.9734 165° South  Level Estimated
04:29AM 26.4625 55.0126 165° South  Level Estimated
04:30AM 26.3294 55.0518 165° South  Level Estimated
04:31AM 26.1963 55.0908 165° South  Level Estimated
04:32AM 26.0632 55.1297 165° South  Level Estimated
04:33AM 25.9300 55.1686 165° South  Level Estimated
04:34AM 25.7969 55.2074 165° South  Level Estimated
04:35AM 25.6637 55.2461 165° South  Level Estimated
04:36AM 25.5306 55.2847 165° South  Level Estimated
04:37AM 25.3974 55.3232 165° South  Level Estimated
04:38AM 25.2642 55.3616 165° South  Level Estimated
04:39AM 25.2550 55.3643 165° South  Level Estimated
04:40AM 25.2550 55.3643 211° Southwest  Level Estimated
04:41AM 25.2550 55.3643 211° Southwest  Level Estimated
04:42AM 25.2550 55.3643 211° Southwest  Level Estimated
04:43AM 25.2550 55.3643 211° Southwest  Level Estimated
04:44AM 25.2550 55.3643 211° Southwest  Level Estimated
04:45AM 25.2550 55.3643 211° Southwest  Level Estimated
04:46AM 25.2550 55.3643 211° Southwest  Level Estimated
04:47AM 25.2550 55.3643 211° Southwest  Level Estimated
04:48AM 25.2550 55.3643 211° Southwest  Level Estimated
04:49AM 25.2550 55.3643 211° Southwest  Level Estimated
04:50AM 25.2550 55.3643 211° Southwest  Level Estimated
04:51AM 25.2550 55.3643 211° Southwest  Level Estimated
04:51AM 25.6060 54.6810 211° Southwest 323 372 15,300  Level FlightAware
04:52AM 25.5960 54.7450 100° East 322 371 14,800 -780 Descending FlightAware
04:53AM 25.5870 54.8150 98° East 320 368 14,200 -780 Descending FlightAware
04:53AM 25.5780 54.8830 98° East 313 360 13,700 -840 Descending FlightAware
04:54AM 25.5660 54.9450 102° East 312 359 13,100 -900 Descending FlightAware
04:55AM 25.5330 55.0080 120° Southeast 313 360 12,500 -900 Descending FlightAware
04:55AM 25.5030 55.0620 122° Southeast 313 360 11,900 -900 Descending FlightAware
04:56AM 25.4690 55.1230 122° Southeast 308 354 11,300 -780 Descending FlightAware
04:57AM 25.4400 55.1750 122° Southeast 301 346 10,800 -780 Descending FlightAware
04:57AM 25.4110 55.2280 121° Southeast 297 342 10,300 -780 Descending FlightAware
04:58AM 25.3900 55.2650 122° Southeast 295 339 9,900 -900 Descending FlightAware
04:58AM 25.3670 55.3070 121° Southeast 291 335 9,400 -900 Descending FlightAware
04:59AM 25.3490 55.3390 122° Southeast 289 333 9,100 -780 Descending FlightAware
04:59AM 25.3380 55.3590 121° Southeast 285 328 8,900 -1,080 Descending FlightAware
05:00AM 25.3170 55.3960 122° Southeast 283 326 8,300 -1,200 Descending FlightAware
05:00AM 25.3100 55.4080 123° Southeast 284 327 8,100 -1,200 Descending FlightAware
05:00AM 25.2890 55.4460 121° Southeast 288 331 7,500 -1,200 Descending FlightAware
05:01AM 25.2690 55.4830 121° Southeast 290 334 6,900 -900 Descending FlightAware
05:01AM 25.2510 55.5160 121° Southeast 280 322 6,700 -600 Descending FlightAware
05:02AM 25.2320 55.5520 120° Southeast 268 308 6,400 -540 Descending FlightAware
05:02AM 25.2160 55.5850 118° Southeast 251 289 6,200 -600 Descending FlightAware
05:03AM 25.2010 55.6140 120° Southeast 243 280 5,900 -780 Descending FlightAware
05:03AM 25.1850 55.6470 118° Southeast 236 272 5,500 -780 Descending FlightAware
05:04AM 25.1730 55.6720 118° Southeast 229 264 5,200 -900 Descending FlightAware
05:04AM 25.1530 55.7000 128° Southeast 210 242 4,700 -840 Descending FlightAware
05:04AM 25.1400 55.7040 164° South 200 230 4,600 -480 Descending FlightAware
05:05AM 25.1050 55.6940 195° South 199 229 4,300 -360 Descending FlightAware
05:05AM 25.0990 55.6800 245° Southwest 192 221 4,300 -240 Level FlightAware
05:06AM 25.1040 55.6410 278° West 196 226 4,100 -300 Descending FlightAware
05:06AM 25.1170 55.6160 300° West 196 226 4,000 -240 Descending FlightAware
05:07AM 25.1290 55.5950 302° West 191 220 3,900 -240 Descending FlightAware
05:07AM 25.1430 55.5690 301° West 194 223 3,800 -540 Descending FlightAware
05:08AM 25.1570 55.5440 302° West 188 216 3,400 -960 Descending FlightAware
05:08AM 25.1640 55.5320 303° West 186 214 3,100 -1,080 Descending FlightAware
05:08AM 25.1750 55.5120 301° West 173 199 2,700 -840 Descending FlightAware
05:09AM 25.1840 55.4960 302° West 159 183 2,400 -480 Descending FlightAware
05:10AM 25.2010 55.4650 301° West 160 184 2,200 -660 Descending FlightAware
05:11AM 25.2250 55.4220 302° West 133 153 1,100 -840 Descending FlightAware
05:11AM 25.2320 55.4100 303° West 129 148 800 -780 Descending FlightAware
05:12AM 25.2430 55.3900 301° West 126 145 400 -600 Descending FlightAware
05:12AM 25.2450 55.3860 299° West 128 147 400  Level FlightAware
05:22AM 25.2550 55.3643 130° Southeast  Level Estimated
05:23AM 25.2550 55.3643 130° Southeast  Level Estimated
05:24AM 25.2550 55.3643 130° Southeast  Level Estimated
05:25AM 25.2550 55.3643 130° Southeast  Level Estimated
05:26AM 25.2550 55.3643 130° Southeast  Level Estimated
05:27AM 25.2550 55.3643 130° Southeast  Level Estimated
05:28AM 25.2550 55.3643 130° Southeast  Level Estimated
05:29AM 25.2550 55.3643 130° Southeast  Level Estimated
05:30AM 25.2550 55.3643 130° Southeast  Level Estimated
05:31AM 25.2550 55.3643 130° Southeast  Level Estimated
05:32AM 25.2550 55.3643 130° Southeast  Level Estimated
05:33AM 25.2550 55.3643 130° Southeast  Level Estimated
05:34AM 25.2550 55.3643 130° Southeast  Level Estimated
05:35AM 25.2550 55.3643 130° Southeast  Level Estimated
05:36AM 25.2550 55.3643 130° Southeast  Level Estimated
05:37AM 25.2550 55.3643 130° Southeast  Level Estimated
05:38AM 25.2550 55.3643 130° Southeast  Level Estimated
05:39AM 25.2550 55.3643 130° Southeast  Level Estimated
05:40AM 25.2550 55.3643 130° Southeast  Level Estimated
05:41AM 25.2550 55.3643 130° Southeast  Level Estimated
05:42AM 25.2550 55.3643 130° Southeast  Level Estimated
05:43AM 25.2550 55.3643 130° Southeast  Level Estimated
05:44AM 25.2550 55.3643 130° Southeast  Level Estimated
05:45AM 25.2550 55.3643 130° Southeast  Level Estimated
05:46AM 25.2550 55.3643 130° Southeast  Level Estimated
05:47AM 25.2550 55.3643 130° Southeast  Level Estimated
05:48AM 25.2550 55.3643 130° Southeast  Level Estimated
05:49AM 25.2550 55.3643 130° Southeast  Level Estimated
05:50AM 25.2550 55.3643 130° Southeast  Level Estimated
05:51AM 25.2550 55.3643 130° Southeast  Level Estimated
05:52AM 25.2550 55.3643 130° Southeast  Level Estimated
05:53AM 25.2550 55.3643 130° Southeast  Level Estimated
05:54AM 25.2550 55.3643 130° Southeast  Level Estimated
05:55AM 25.2550 55.3643 130° Southeast  Level Estimated
05:56AM 25.2550 55.3643 130° Southeast  Level Estimated
05:57AM 25.2550 55.3643 130° Southeast  Level Estimated
05:58AM 25.2550 55.3643 130° Southeast  Level Estimated
05:59AM 25.2550 55.3643 130° Southeast  Level Estimated
06:00AM 25.2550 55.3643 130° Southeast  Level Estimated
06:01AM 25.2550 55.3643 130° Southeast  Level Estimated
06:02AM 25.2550 55.3643 130° Southeast  Level Estimated
06:03AM 25.2550 55.3643 130° Southeast  Level Estimated
06:04AM 25.2550 55.3643 130° Southeast  Level Estimated
06:05AM 25.2550 55.3643 130° Southeast  Level Estimated
06:06AM 25.2550 55.3643 130° Southeast  Level Estimated
06:07AM 25.2550 55.3643 130° Southeast  Level Estimated
06:08AM 25.2550 55.3643 130° Southeast  Level Estimated
06:09AM 25.2550 55.3643 130° Southeast  Level Estimated
06:10AM 25.2550 55.3643 130° Southeast  Level Estimated
06:11AM 25.2550 55.3643 130° Southeast  Level Estimated
06:12AM 25.2550 55.3643 130° Southeast  Level Estimated
06:13AM 25.2550 55.3643 130° Southeast  Level Estimated
06:14AM 25.2550 55.3643 130° Southeast  Level Estimated
06:15AM 25.2550 55.3643 130° Southeast  Level Estimated
06:16AM 25.2550 55.3643 130° Southeast  Level Estimated
06:17AM 25.2550 55.3643 130° Southeast  Level Estimated
06:18AM 25.2550 55.3643 130° Southeast  Level Estimated
06:19AM 25.2550 55.3643 130° Southeast  Level Estimated
06:20AM 25.2550 55.3643 130° Southeast  Level Estimated
06:21AM 25.2550 55.3643 130° Southeast  Level Estimated
06:22AM 25.2550 55.3643 130° Southeast  Level Estimated
06:23AM 25.2550 55.3643 130° Southeast  Level Estimated
06:24AM 25.2550 55.3643 130° Southeast  Level Estimated
06:25AM 25.2550 55.3643 130° Southeast  Level Estimated
06:26AM 25.2550 55.3643 130° Southeast  Level Estimated
06:27AM 25.2550 55.3643 130° Southeast  Level Estimated
06:28AM 25.2550 55.3643 130° Southeast  Level Estimated
06:29AM 25.2550 55.3643 130° Southeast  Level Estimated
06:30AM 25.2550 55.3643 130° Southeast  Level Estimated
06:31AM 25.2550 55.3643 130° Southeast  Level Estimated
06:32AM 25.2550 55.3643 130° Southeast  Level Estimated
06:33AM 25.2550 55.3643 130° Southeast  Level Estimated
06:34AM 25.2550 55.3643 130° Southeast  Level Estimated
06:35AM 25.2550 55.3643 130° Southeast  Level Estimated
06:36AM 25.2550 55.3643 130° Southeast  Level Estimated
06:37AM 25.2550 55.3643 130° Southeast  Level Estimated
06:38AM 25.2550 55.3643 130° Southeast  Level Estimated
06:39AM 25.2550 55.3643 130° Southeast  Level Estimated
06:40AM 25.2550 55.3643 130° Southeast  Level Estimated
06:41AM 25.2550 55.3643 130° Southeast  Level Estimated
06:42AM 25.2550 55.3643 130° Southeast  Level Estimated
06:43AM 25.2550 55.3643 130° Southeast  Level Estimated
06:44AM 25.2550 55.3643 130° Southeast  Level Estimated
06:45AM 25.2550 55.3643 130° Southeast  Level Estimated
06:46AM 25.2550 55.3643 130° Southeast  Level Estimated
06:47AM 25.2550 55.3643 130° Southeast  Level Estimated
06:48AM 25.2550 55.3643 130° Southeast  Level Estimated
06:49AM 25.2550 55.3643 130° Southeast  Level Estimated
06:50AM 25.2550 55.3643 130° Southeast  Level Estimated
06:51AM 25.2550 55.3643 130° Southeast  Level Estimated
06:52AM 25.2550 55.3643 130° Southeast  Level Estimated
06:53AM 25.2550 55.3643 130° Southeast  Level Estimated
06:54AM 25.2550 55.3643 130° Southeast  Level Estimated
06:55AM 25.2550 55.3643 130° Southeast  Level Estimated
06:56AM 25.2550 55.3643 130° Southeast  Level Estimated
06:57AM 25.2550 55.3643 130° Southeast  Level Estimated
06:58AM 25.2550 55.3643 130° Southeast  Level Estimated
06:59AM 25.2550 55.3643 130° Southeast  Level Estimated
07:00AM 25.2550 55.3643 130° Southeast  Level Estimated
07:01AM 25.2550 55.3643 130° Southeast  Level Estimated
07:02AM 25.2550 55.3643 130° Southeast  Level Estimated
07:03AM 25.2550 55.3643 130° Southeast  Level Estimated
07:04AM 25.2550 55.3643 130° Southeast  Level Estimated
07:05AM 25.2550 55.3643 130° Southeast  Level Estimated
07:06AM 25.2550 55.3643 130° Southeast  Level Estimated
07:07AM 25.2550 55.3643 130° Southeast  Level Estimated
07:08AM 25.2550 55.3643 130° Southeast  Level Estimated
07:09AM 25.2550 55.3643 130° Southeast  Level Estimated
07:10AM 25.2550 55.3643 130° Southeast  Level Estimated
07:11AM 25.2550 55.3643 130° Southeast  Level Estimated
07:12AM 25.2550 55.3643 130° Southeast  Level Estimated
07:13AM 25.2550 55.3643 130° Southeast  Level Estimated
07:14AM 25.2550 55.3643 130° Southeast  Level Estimated
07:15AM 25.2550 55.3643 130° Southeast  Level Estimated
07:16AM 25.2550 55.3643 130° Southeast  Level Estimated
07:17AM 25.2550 55.3643 130° Southeast  Level Estimated
07:18AM 25.2550 55.3643 130° Southeast  Level Estimated
07:19AM 25.2550 55.3643 130° Southeast  Level Estimated
07:20AM 25.2550 55.3643 130° Southeast  Level Estimated
07:21AM 25.2550 55.3643 130° Southeast  Level Estimated
07:22AM 25.2550 55.3643 130° Southeast  Level Estimated
07:23AM 25.2550 55.3643 130° Southeast  Level Estimated
07:24AM 25.2550 55.3643 130° Southeast  Level Estimated
07:25AM 25.2550 55.3643 130° Southeast  Level Estimated
07:26AM 25.2550 55.3643 130° Southeast  Level Estimated
07:27AM 25.2550 55.3643 130° Southeast  Level Estimated
07:28AM 25.2550 55.3643 130° Southeast  Level Estimated
07:29AM 25.2550 55.3643 130° Southeast  Level Estimated
07:30AM 25.2550 55.3643 130° Southeast  Level Estimated
07:31AM 25.2550 55.3643 130° Southeast  Level Estimated
07:32AM 25.2550 55.3643 130° Southeast  Level Estimated
07:33AM 25.2550 55.3643 130° Southeast  Level Estimated
07:34AM 25.2550 55.3643 130° Southeast  Level Estimated
07:35AM 25.2550 55.3643 130° Southeast  Level Estimated
07:36AM 25.2550 55.3643 130° Southeast  Level Estimated
07:37AM 25.2550 55.3643 130° Southeast  Level Estimated
07:38AM 25.2550 55.3643 130° Southeast  Level Estimated
07:39AM 25.2550 55.3643 130° Southeast  Level Estimated
07:40AM 25.2550 55.3643 130° Southeast  Level Estimated
07:41AM 25.2550 55.3643 130° Southeast  Level Estimated
07:42AM 25.2550 55.3643 130° Southeast  Level Estimated
07:43AM 25.2550 55.3643 130° Southeast  Level Estimated
07:44AM 25.2550 55.3643 130° Southeast  Level Estimated
07:45AM 25.2550 55.3643 130° Southeast  Level Estimated
07:46AM 25.2550 55.3643 130° Southeast  Level Estimated
07:47AM 25.2550 55.3643 130° Southeast  Level Estimated
07:48AM 25.2550 55.3643 130° Southeast  Level Estimated
07:49AM 25.2550 55.3643 130° Southeast  Level Estimated
07:50AM 25.2550 55.3643 130° Southeast  Level Estimated
07:51AM 25.2550 55.3643 130° Southeast  Level Estimated
07:52AM 25.2550 55.3643 130° Southeast  Level Estimated
07:53AM 25.2550 55.3643 130° Southeast  Level Estimated
07:54AM 25.2550 55.3643 130° Southeast  Level Estimated
07:55AM 25.2550 55.3643 130° Southeast  Level Estimated
07:56AM 25.2550 55.3643 130° Southeast  Level Estimated